sensor_id;sensor_type;location;lat;lon;timestamp;P1;durP1;ratioP1;P2;durP2;ratioP2
3911;SDS011;1971;51.778;10.330;2022-07-12T00:02:26;10.33;;;9.67;;
3911;SDS011;1971;51.778;10.330;2022-07-12T00:05:02;8.97;;;8.47;;
3911;SDS011;1971;51.778;10.330;2022-07-12T00:07:45;8.93;;;8.43;;
3911;SDS011;1971;51.778;10.330;2022-07-12T00:13:10;8.27;;;7.70;;
3911;SDS011;1971;51.778;10.330;2022-07-12T00:15:55;7.43;;;7.03;;
3911;SDS011;1971;51.778;10.330;2022-07-12T00:18:32;8.60;;;7.83;;
3911;SDS011;1971;51.778;10.330;2022-07-12T00:21:08;6.07;;;5.67;;
3911;SDS011;1971;51.778;10.330;2022-07-12T00:23:50;5.90;;;5.53;;
3911;SDS011;1971;51.778;10.330;2022-07-12T00:26:26;5.40;;;5.10;;
3911;SDS011;1971;51.778;10.330;2022-07-12T00:29:09;6.30;;;5.90;;
3911;SDS011;1971;51.778;10.330;2022-07-12T00:31:49;5.90;;;5.50;;
3911;SDS011;1971;51.778;10.330;2022-07-12T00:34:31;5.67;;;5.37;;
3911;SDS011;1971;51.778;10.330;2022-07-12T00:37:07;5.63;;;5.33;;
3911;SDS011;1971;51.778;10.330;2022-07-12T00:39:49;6.60;;;5.57;;
3911;SDS011;1971;51.778;10.330;2022-07-12T00:42:26;5.03;;;4.73;;
3911;SDS011;1971;51.778;10.330;2022-07-12T00:45:08;5.37;;;4.97;;
3911;SDS011;1971;51.778;10.330;2022-07-12T00:47:49;4.40;;;4.10;;
3911;SDS011;1971;51.778;10.330;2022-07-12T00:50:27;5.23;;;4.93;;
3911;SDS011;1971;51.778;10.330;2022-07-12T00:53:09;4.83;;;4.43;;
3911;SDS011;1971;51.778;10.330;2022-07-12T00:55:45;5.27;;;4.97;;
3911;SDS011;1971;51.778;10.330;2022-07-12T00:58:28;4.73;;;4.47;;
3911;SDS011;1971;51.778;10.330;2022-07-12T01:01:04;4.60;;;4.30;;
3911;SDS011;1971;51.778;10.330;2022-07-12T01:03:49;6.23;;;4.93;;
3911;SDS011;1971;51.778;10.330;2022-07-12T01:06:25;4.37;;;4.17;;
3911;SDS011;1971;51.778;10.330;2022-07-12T01:09:07;5.27;;;4.77;;
3911;SDS011;1971;51.778;10.330;2022-07-12T01:11:44;5.27;;;4.97;;
3911;SDS011;1971;51.778;10.330;2022-07-12T01:14:26;5.17;;;4.83;;
3911;SDS011;1971;51.778;10.330;2022-07-12T01:17:03;5.67;;;5.27;;
3911;SDS011;1971;51.778;10.330;2022-07-12T01:19:48;5.23;;;4.93;;
3911;SDS011;1971;51.778;10.330;2022-07-12T01:22:26;5.90;;;5.40;;
3911;SDS011;1971;51.778;10.330;2022-07-12T01:25:13;6.60;;;6.10;;
3911;SDS011;1971;51.778;10.330;2022-07-12T01:27:49;5.73;;;5.43;;
3911;SDS011;1971;51.778;10.330;2022-07-12T01:30:26;5.00;;;4.70;;
3911;SDS011;1971;51.778;10.330;2022-07-12T01:33:08;5.57;;;5.27;;
3911;SDS011;1971;51.778;10.330;2022-07-12T01:35:45;5.50;;;5.10;;
3911;SDS011;1971;51.778;10.330;2022-07-12T01:38:27;6.03;;;5.63;;
3911;SDS011;1971;51.778;10.330;2022-07-12T01:41:06;5.33;;;5.03;;
3911;SDS011;1971;51.778;10.330;2022-07-12T01:43:48;5.80;;;5.20;;
3911;SDS011;1971;51.778;10.330;2022-07-12T01:46:25;6.20;;;5.80;;
3911;SDS011;1971;51.778;10.330;2022-07-12T01:49:07;5.40;;;5.10;;
3911;SDS011;1971;51.778;10.330;2022-07-12T01:51:43;5.77;;;5.47;;
3911;SDS011;1971;51.778;10.330;2022-07-12T01:54:25;5.90;;;5.50;;
3911;SDS011;1971;51.778;10.330;2022-07-12T01:57:04;5.13;;;4.60;;
3911;SDS011;1971;51.778;10.330;2022-07-12T01:59:46;5.17;;;4.87;;
3911;SDS011;1971;51.778;10.330;2022-07-12T02:02:24;5.17;;;4.87;;
3911;SDS011;1971;51.778;10.330;2022-07-12T02:05:07;5.40;;;5.10;;
3911;SDS011;1971;51.778;10.330;2022-07-12T02:07:44;5.13;;;4.83;;
3911;SDS011;1971;51.778;10.330;2022-07-12T02:10:27;4.90;;;4.60;;
3911;SDS011;1971;51.778;10.330;2022-07-12T02:13:07;4.40;;;4.20;;
3911;SDS011;1971;51.778;10.330;2022-07-12T02:15:43;4.77;;;4.47;;
3911;SDS011;1971;51.778;10.330;2022-07-12T02:18:25;4.80;;;4.50;;
3911;SDS011;1971;51.778;10.330;2022-07-12T02:21:01;4.90;;;4.60;;
3911;SDS011;1971;51.778;10.330;2022-07-12T02:23:43;4.53;;;4.33;;
3911;SDS011;1971;51.778;10.330;2022-07-12T02:26:19;4.43;;;4.10;;
3911;SDS011;1971;51.778;10.330;2022-07-12T02:29:04;4.60;;;4.20;;
3911;SDS011;1971;51.778;10.330;2022-07-12T02:31:41;4.13;;;3.93;;
3911;SDS011;1971;51.778;10.330;2022-07-12T02:34:23;3.80;;;3.60;;
3911;SDS011;1971;51.778;10.330;2022-07-12T02:36:59;4.07;;;3.87;;
3911;SDS011;1971;51.778;10.330;2022-07-12T02:39:41;5.10;;;4.80;;
3911;SDS011;1971;51.778;10.330;2022-07-12T02:42:17;4.80;;;4.50;;
3911;SDS011;1971;51.778;10.330;2022-07-12T02:45:02;5.40;;;5.10;;
3911;SDS011;1971;51.778;10.330;2022-07-12T02:47:39;4.53;;;4.33;;
3911;SDS011;1971;51.778;10.330;2022-07-12T02:50:15;5.43;;;5.03;;
3911;SDS011;1971;51.778;10.330;2022-07-12T02:52:57;5.60;;;5.30;;
3911;SDS011;1971;51.778;10.330;2022-07-12T02:55:33;4.40;;;4.20;;
3911;SDS011;1971;51.778;10.330;2022-07-12T02:58:15;4.70;;;4.47;;
3911;SDS011;1971;51.778;10.330;2022-07-12T03:00:54;4.80;;;4.50;;
3911;SDS011;1971;51.778;10.330;2022-07-12T03:03:36;4.00;;;3.70;;
3911;SDS011;1971;51.778;10.330;2022-07-12T03:06:12;3.87;;;3.67;;
3911;SDS011;1971;51.778;10.330;2022-07-12T03:08:54;11.63;;;3.83;;
3911;SDS011;1971;51.778;10.330;2022-07-12T03:11:30;4.17;;;3.97;;
3911;SDS011;1971;51.778;10.330;2022-07-12T03:14:12;4.53;;;4.13;;
3911;SDS011;1971;51.778;10.330;2022-07-12T03:16:51;4.33;;;4.13;;
3911;SDS011;1971;51.778;10.330;2022-07-12T03:19:33;5.20;;;4.80;;
3911;SDS011;1971;51.778;10.330;2022-07-12T03:22:09;3.63;;;3.43;;
3911;SDS011;1971;51.778;10.330;2022-07-12T03:24:51;4.33;;;3.93;;
3911;SDS011;1971;51.778;10.330;2022-07-12T03:27:28;4.40;;;4.10;;
3911;SDS011;1971;51.778;10.330;2022-07-12T03:30:08;4.50;;;4.20;;
3911;SDS011;1971;51.778;10.330;2022-07-12T03:32:53;3.63;;;3.43;;
3911;SDS011;1971;51.778;10.330;2022-07-12T03:35:29;4.27;;;3.97;;
3911;SDS011;1971;51.778;10.330;2022-07-12T03:38:11;4.20;;;4.00;;
3911;SDS011;1971;51.778;10.330;2022-07-12T03:40:47;5.90;;;4.00;;
3911;SDS011;1971;51.778;10.330;2022-07-12T03:43:29;3.67;;;3.10;;
3911;SDS011;1971;51.778;10.330;2022-07-12T03:46:05;3.87;;;3.67;;
3911;SDS011;1971;51.778;10.330;2022-07-12T03:48:50;63.33;;;6.30;;
3911;SDS011;1971;51.778;10.330;2022-07-12T03:51:26;321.80;;;21.30;;
3911;SDS011;1971;51.778;10.330;2022-07-12T03:54:08;4.10;;;2.87;;
3911;SDS011;1971;51.778;10.330;2022-07-12T03:56:44;3.50;;;3.30;;
3911;SDS011;1971;51.778;10.330;2022-07-12T03:59:34;4.50;;;4.20;;
3911;SDS011;1971;51.778;10.330;2022-07-12T04:02:13;4.90;;;4.33;;
3911;SDS011;1971;51.778;10.330;2022-07-12T04:04:58;3.93;;;3.73;;
3911;SDS011;1971;51.778;10.330;2022-07-12T04:07:34;5.10;;;4.70;;
3911;SDS011;1971;51.778;10.330;2022-07-12T04:10:11;4.87;;;4.57;;
3911;SDS011;1971;51.778;10.330;2022-07-12T04:12:53;5.07;;;4.77;;
3911;SDS011;1971;51.778;10.330;2022-07-12T04:15:29;4.17;;;3.87;;
3911;SDS011;1971;51.778;10.330;2022-07-12T04:18:11;4.90;;;4.60;;
3911;SDS011;1971;51.778;10.330;2022-07-12T04:20:50;4.77;;;4.47;;
3911;SDS011;1971;51.778;10.330;2022-07-12T04:23:32;4.77;;;4.47;;
3911;SDS011;1971;51.778;10.330;2022-07-12T04:26:08;4.57;;;4.27;;
3911;SDS011;1971;51.778;10.330;2022-07-12T04:28:50;4.43;;;4.17;;
3911;SDS011;1971;51.778;10.330;2022-07-12T04:31:31;3.83;;;3.63;;
3911;SDS011;1971;51.778;10.330;2022-07-12T04:34:13;4.50;;;4.20;;
3911;SDS011;1971;51.778;10.330;2022-07-12T04:36:52;5.20;;;3.70;;
3911;SDS011;1971;51.778;10.330;2022-07-12T04:39:34;3.93;;;3.73;;
3911;SDS011;1971;51.778;10.330;2022-07-12T04:42:10;3.53;;;3.33;;
3911;SDS011;1971;51.778;10.330;2022-07-12T04:44:53;4.07;;;3.87;;
3911;SDS011;1971;51.778;10.330;2022-07-12T04:47:29;3.73;;;3.43;;
3911;SDS011;1971;51.778;10.330;2022-07-12T04:50:11;3.70;;;3.50;;
3911;SDS011;1971;51.778;10.330;2022-07-12T04:52:51;2.30;;;2.20;;
3911;SDS011;1971;51.778;10.330;2022-07-12T04:58:43;2.30;;;2.20;;
3911;SDS011;1971;51.778;10.330;2022-07-12T05:01:27;1.93;;;1.83;;
3911;SDS011;1971;51.778;10.330;2022-07-12T05:04:03;1.60;;;1.50;;
3911;SDS011;1971;51.778;10.330;2022-07-12T05:06:39;3.63;;;1.40;;
3911;SDS011;1971;51.778;10.330;2022-07-12T05:09:24;1.47;;;1.37;;
3911;SDS011;1971;51.778;10.330;2022-07-12T05:12:00;1.40;;;1.27;;
3911;SDS011;1971;51.778;10.330;2022-07-12T05:14:42;1.20;;;1.20;;
3911;SDS011;1971;51.778;10.330;2022-07-12T05:17:18;2.70;;;1.77;;
3911;SDS011;1971;51.778;10.330;2022-07-12T05:20:00;1.77;;;1.67;;
3911;SDS011;1971;51.778;10.330;2022-07-12T05:22:36;1.50;;;1.40;;
3911;SDS011;1971;51.778;10.330;2022-07-12T05:25:22;1.83;;;1.73;;
3911;SDS011;1971;51.778;10.330;2022-07-12T05:27:58;3.10;;;1.83;;
3911;SDS011;1971;51.778;10.330;2022-07-12T05:30:34;2.20;;;2.10;;
3911;SDS011;1971;51.778;10.330;2022-07-12T05:33:16;2.43;;;2.33;;
3911;SDS011;1971;51.778;10.330;2022-07-12T05:35:53;1.80;;;1.70;;
3911;SDS011;1971;51.778;10.330;2022-07-12T05:38:35;1.77;;;1.67;;
3911;SDS011;1971;51.778;10.330;2022-07-12T05:41:15;2.40;;;2.20;;
3911;SDS011;1971;51.778;10.330;2022-07-12T05:43:57;2.13;;;2.03;;
3911;SDS011;1971;51.778;10.330;2022-07-12T05:46:33;2.50;;;1.77;;
3911;SDS011;1971;51.778;10.330;2022-07-12T05:49:16;2.67;;;2.47;;
3911;SDS011;1971;51.778;10.330;2022-07-12T05:51:53;1.70;;;1.60;;
3911;SDS011;1971;51.778;10.330;2022-07-12T05:54:42;1.30;;;1.30;;
3911;SDS011;1971;51.778;10.330;2022-07-12T05:57:21;1.70;;;1.60;;
3911;SDS011;1971;51.778;10.330;2022-07-12T06:00:04;1.00;;;1.00;;
3911;SDS011;1971;51.778;10.330;2022-07-12T06:02:41;1.73;;;1.37;;
3911;SDS011;1971;51.778;10.330;2022-07-12T06:05:24;3.70;;;1.50;;
3911;SDS011;1971;51.778;10.330;2022-07-12T06:08:05;2.83;;;1.40;;
3911;SDS011;1971;51.778;10.330;2022-07-12T06:10:41;1.10;;;1.10;;
3911;SDS011;1971;51.778;10.330;2022-07-12T06:13:26;1.47;;;1.37;;
3911;SDS011;1971;51.778;10.330;2022-07-12T06:16:03;2.10;;;2.00;;
3911;SDS011;1971;51.778;10.330;2022-07-12T06:18:48;3.47;;;1.77;;
3911;SDS011;1971;51.778;10.330;2022-07-12T06:21:25;1.73;;;1.63;;
3911;SDS011;1971;51.778;10.330;2022-07-12T06:24:07;2.37;;;1.90;;
3911;SDS011;1971;51.778;10.330;2022-07-12T06:26:43;1.60;;;1.50;;
3911;SDS011;1971;51.778;10.330;2022-07-12T06:29:28;1.90;;;1.80;;
3911;SDS011;1971;51.778;10.330;2022-07-12T06:32:05;1.73;;;1.63;;
3911;SDS011;1971;51.778;10.330;2022-07-12T06:34:47;1.83;;;1.73;;
3911;SDS011;1971;51.778;10.330;2022-07-12T06:37:24;1.80;;;1.70;;
3911;SDS011;1971;51.778;10.330;2022-07-12T06:40:07;1.93;;;1.83;;
3911;SDS011;1971;51.778;10.330;2022-07-12T06:42:44;1.73;;;1.63;;
3911;SDS011;1971;51.778;10.330;2022-07-12T06:45:29;3.07;;;1.87;;
3911;SDS011;1971;51.778;10.330;2022-07-12T06:48:06;1.57;;;1.47;;
3911;SDS011;1971;51.778;10.330;2022-07-12T06:50:42;1.97;;;1.77;;
3911;SDS011;1971;51.778;10.330;2022-07-12T06:53:23;1.73;;;1.63;;
3911;SDS011;1971;51.778;10.330;2022-07-12T06:55:59;1.60;;;1.50;;
3911;SDS011;1971;51.778;10.330;2022-07-12T06:58:41;4.73;;;2.03;;
3911;SDS011;1971;51.778;10.330;2022-07-12T07:01:20;1.10;;;1.10;;
3911;SDS011;1971;51.778;10.330;2022-07-12T07:04:03;2.03;;;1.93;;
3911;SDS011;1971;51.778;10.330;2022-07-12T07:06:39;1.90;;;1.80;;
3911;SDS011;1971;51.778;10.330;2022-07-12T07:09:22;1.73;;;1.63;;
3911;SDS011;1971;51.778;10.330;2022-07-12T07:11:57;1.93;;;1.80;;
3911;SDS011;1971;51.778;10.330;2022-07-12T07:14:40;2.27;;;2.17;;
3911;SDS011;1971;51.778;10.330;2022-07-12T07:17:18;2.17;;;1.40;;
3911;SDS011;1971;51.778;10.330;2022-07-12T07:20:01;1.37;;;1.37;;
3911;SDS011;1971;51.778;10.330;2022-07-12T07:22:38;1.97;;;1.63;;
3911;SDS011;1971;51.778;10.330;2022-07-12T07:25:19;1.53;;;1.43;;
3911;SDS011;1971;51.778;10.330;2022-07-12T07:27:56;1.60;;;1.50;;
3911;SDS011;1971;51.778;10.330;2022-07-12T07:30:37;1.30;;;1.20;;
3911;SDS011;1971;51.778;10.330;2022-07-12T07:33:29;1.10;;;1.10;;
3911;SDS011;1971;51.778;10.330;2022-07-12T07:36:07;1.23;;;1.23;;
3911;SDS011;1971;51.778;10.330;2022-07-12T07:38:49;1.30;;;1.30;;
3911;SDS011;1971;51.778;10.330;2022-07-12T07:41:25;1.17;;;1.17;;
3911;SDS011;1971;51.778;10.330;2022-07-12T07:44:07;1.00;;;1.00;;
3911;SDS011;1971;51.778;10.330;2022-07-12T07:46:43;1.83;;;1.50;;
3911;SDS011;1971;51.778;10.330;2022-07-12T07:49:27;1.60;;;1.50;;
3911;SDS011;1971;51.778;10.330;2022-07-12T07:52:05;1.20;;;1.20;;
3911;SDS011;1971;51.778;10.330;2022-07-12T07:54:48;1.47;;;1.37;;
3911;SDS011;1971;51.778;10.330;2022-07-12T07:57:24;1.67;;;1.50;;
3911;SDS011;1971;51.778;10.330;2022-07-12T08:00:06;1.10;;;1.10;;
3911;SDS011;1971;51.778;10.330;2022-07-12T08:02:45;1.37;;;1.30;;
3911;SDS011;1971;51.778;10.330;2022-07-12T08:05:30;1.40;;;1.30;;
3911;SDS011;1971;51.778;10.330;2022-07-12T08:08:07;1.43;;;1.40;;
3911;SDS011;1971;51.778;10.330;2022-07-12T08:10:49;1.33;;;1.27;;
3911;SDS011;1971;51.778;10.330;2022-07-12T08:13:25;3.73;;;1.70;;
3911;SDS011;1971;51.778;10.330;2022-07-12T08:16:01;1.83;;;1.53;;
3911;SDS011;1971;51.778;10.330;2022-07-12T08:18:43;1.60;;;1.40;;
3911;SDS011;1971;51.778;10.330;2022-07-12T08:21:21;1.70;;;1.60;;
3911;SDS011;1971;51.778;10.330;2022-07-12T08:24:04;1.90;;;1.80;;
3911;SDS011;1971;51.778;10.330;2022-07-12T08:26:41;2.00;;;1.90;;
3911;SDS011;1971;51.778;10.330;2022-07-12T08:29:23;2.23;;;2.07;;
3911;SDS011;1971;51.778;10.330;2022-07-12T08:31:59;2.47;;;1.70;;
3911;SDS011;1971;51.778;10.330;2022-07-12T08:34:41;3.57;;;2.00;;
3911;SDS011;1971;51.778;10.330;2022-07-12T08:37:19;2.67;;;2.00;;
3911;SDS011;1971;51.778;10.330;2022-07-12T08:40:02;2.10;;;2.00;;
3911;SDS011;1971;51.778;10.330;2022-07-12T08:42:40;2.40;;;2.20;;
3911;SDS011;1971;51.778;10.330;2022-07-12T08:45:26;4.17;;;2.50;;
3911;SDS011;1971;51.778;10.330;2022-07-12T08:48:03;2.23;;;2.13;;
3911;SDS011;1971;51.778;10.330;2022-07-12T08:50:59;2.40;;;2.00;;
3911;SDS011;1971;51.778;10.330;2022-07-12T08:53:40;1.93;;;1.83;;
3911;SDS011;1971;51.778;10.330;2022-07-12T08:56:29;2.83;;;2.73;;
3911;SDS011;1971;51.778;10.330;2022-07-12T08:59:13;2.40;;;2.30;;
3911;SDS011;1971;51.778;10.330;2022-07-12T09:01:51;2.40;;;2.30;;
3911;SDS011;1971;51.778;10.330;2022-07-12T09:04:34;2.30;;;2.20;;
3911;SDS011;1971;51.778;10.330;2022-07-12T09:07:13;6.03;;;2.37;;
3911;SDS011;1971;51.778;10.330;2022-07-12T09:09:59;2.20;;;2.10;;
3911;SDS011;1971;51.778;10.330;2022-07-12T09:12:39;2.10;;;2.00;;
3911;SDS011;1971;51.778;10.330;2022-07-12T09:15:22;2.17;;;1.97;;
3911;SDS011;1971;51.778;10.330;2022-07-12T09:18:01;2.20;;;2.00;;
3911;SDS011;1971;51.778;10.330;2022-07-12T09:20:49;2.00;;;1.60;;
3911;SDS011;1971;51.778;10.330;2022-07-12T09:23:33;2.03;;;1.90;;
3911;SDS011;1971;51.778;10.330;2022-07-12T09:26:16;2.33;;;2.23;;
3911;SDS011;1971;51.778;10.330;2022-07-12T09:28:53;2.20;;;2.10;;
3911;SDS011;1971;51.778;10.330;2022-07-12T09:31:37;2.33;;;1.87;;
3911;SDS011;1971;51.778;10.330;2022-07-12T09:34:34;2.00;;;1.90;;
3911;SDS011;1971;51.778;10.330;2022-07-12T09:37:32;1.97;;;1.87;;
3911;SDS011;1971;51.778;10.330;2022-07-12T09:40:21;2.63;;;2.23;;
3911;SDS011;1971;51.778;10.330;2022-07-12T09:43:00;2.10;;;2.00;;
3911;SDS011;1971;51.778;10.330;2022-07-12T09:45:44;2.17;;;1.97;;
3911;SDS011;1971;51.778;10.330;2022-07-12T09:48:23;1.90;;;1.80;;
3911;SDS011;1971;51.778;10.330;2022-07-12T09:51:01;2.93;;;2.73;;
3911;SDS011;1971;51.778;10.330;2022-07-12T09:53:44;2.40;;;2.30;;
3911;SDS011;1971;51.778;10.330;2022-07-12T09:56:22;2.40;;;2.30;;
3911;SDS011;1971;51.778;10.330;2022-07-12T09:59:10;1.83;;;1.70;;
3911;SDS011;1971;51.778;10.330;2022-07-12T10:01:50;2.30;;;2.20;;
3911;SDS011;1971;51.778;10.330;2022-07-12T10:04:35;2.03;;;1.93;;
3911;SDS011;1971;51.778;10.330;2022-07-12T10:07:12;2.10;;;1.80;;
3911;SDS011;1971;51.778;10.330;2022-07-12T10:09:55;2.00;;;1.90;;
3911;SDS011;1971;51.778;10.330;2022-07-12T10:12:32;2.90;;;2.10;;
3911;SDS011;1971;51.778;10.330;2022-07-12T10:15:18;2.63;;;2.43;;
3911;SDS011;1971;51.778;10.330;2022-07-12T10:17:59;2.20;;;2.10;;
3911;SDS011;1971;51.778;10.330;2022-07-12T10:20:42;1.77;;;1.67;;
3911;SDS011;1971;51.778;10.330;2022-07-12T10:26:27;1.53;;;1.43;;
3911;SDS011;1971;51.778;10.330;2022-07-12T10:29:19;3.63;;;2.20;;
3911;SDS011;1971;51.778;10.330;2022-07-12T10:31:59;1.73;;;1.63;;
3911;SDS011;1971;51.778;10.330;2022-07-12T10:34:42;2.10;;;1.90;;
3911;SDS011;1971;51.778;10.330;2022-07-12T10:37:19;2.20;;;2.10;;
3911;SDS011;1971;51.778;10.330;2022-07-12T10:40:10;1.97;;;1.87;;
3911;SDS011;1971;51.778;10.330;2022-07-12T10:45:50;3.73;;;2.00;;
3911;SDS011;1971;51.778;10.330;2022-07-12T10:48:35;1.77;;;1.67;;
3911;SDS011;1971;51.778;10.330;2022-07-12T10:51:15;3.37;;;1.90;;
3911;SDS011;1971;51.778;10.330;2022-07-12T10:53:59;2.10;;;2.00;;
3911;SDS011;1971;51.778;10.330;2022-07-12T10:56:55;1.70;;;1.60;;
3911;SDS011;1971;51.778;10.330;2022-07-12T10:59:38;1.83;;;1.50;;
3911;SDS011;1971;51.778;10.330;2022-07-12T11:02:14;1.60;;;1.50;;
3911;SDS011;1971;51.778;10.330;2022-07-12T11:04:59;1.60;;;1.50;;
3911;SDS011;1971;51.778;10.330;2022-07-12T11:07:36;1.80;;;1.70;;
3911;SDS011;1971;51.778;10.330;2022-07-12T11:10:18;1.77;;;1.67;;
3911;SDS011;1971;51.778;10.330;2022-07-12T11:12:55;3.60;;;1.60;;
3911;SDS011;1971;51.778;10.330;2022-07-12T11:15:37;4.30;;;1.57;;
3911;SDS011;1971;51.778;10.330;2022-07-12T11:18:26;1.53;;;1.40;;
3911;SDS011;1971;51.778;10.330;2022-07-12T11:21:05;1.50;;;1.40;;
3911;SDS011;1971;51.778;10.330;2022-07-12T11:23:48;1.57;;;1.47;;
3911;SDS011;1971;51.778;10.330;2022-07-12T11:26:25;1.57;;;1.33;;
3911;SDS011;1971;51.778;10.330;2022-07-12T11:29:08;3.70;;;1.40;;
3911;SDS011;1971;51.778;10.330;2022-07-12T11:31:44;1.43;;;1.20;;
3911;SDS011;1971;51.778;10.330;2022-07-12T11:34:26;1.40;;;1.30;;
3911;SDS011;1971;51.778;10.330;2022-07-12T11:37:05;1.43;;;1.33;;
3911;SDS011;1971;51.778;10.330;2022-07-12T11:39:48;3.80;;;1.20;;
3911;SDS011;1971;51.778;10.330;2022-07-12T11:42:27;3.23;;;1.40;;
3911;SDS011;1971;51.778;10.330;2022-07-12T11:45:10;1.70;;;1.43;;
3911;SDS011;1971;51.778;10.330;2022-07-12T11:47:51;1.53;;;1.43;;
3911;SDS011;1971;51.778;10.330;2022-07-12T11:50:33;1.40;;;1.30;;
3911;SDS011;1971;51.778;10.330;2022-07-12T11:53:16;1.47;;;1.20;;
3911;SDS011;1971;51.778;10.330;2022-07-12T11:55:48;1.23;;;0.97;;
3911;SDS011;1971;51.778;10.330;2022-07-12T11:58:31;1.40;;;1.13;;
3911;SDS011;1971;51.778;10.330;2022-07-12T12:01:11;1.60;;;1.10;;
3911;SDS011;1971;51.778;10.330;2022-07-12T12:03:53;1.13;;;1.10;;
3911;SDS011;1971;51.778;10.330;2022-07-12T12:06:29;1.53;;;1.17;;
3911;SDS011;1971;51.778;10.330;2022-07-12T12:09:14;1.37;;;1.30;;
3911;SDS011;1971;51.778;10.330;2022-07-12T12:14:47;1.20;;;1.10;;
3911;SDS011;1971;51.778;10.330;2022-07-12T12:17:29;1.67;;;1.20;;
3911;SDS011;1971;51.778;10.330;2022-07-12T12:20:10;1.20;;;1.10;;
3911;SDS011;1971;51.778;10.330;2022-07-12T12:22:49;1.60;;;1.50;;
3911;SDS011;1971;51.778;10.330;2022-07-12T12:25:34;1.23;;;1.13;;
3911;SDS011;1971;51.778;10.330;2022-07-12T12:28:11;1.87;;;1.10;;
3911;SDS011;1971;51.778;10.330;2022-07-12T12:30:48;1.50;;;1.40;;
3911;SDS011;1971;51.778;10.330;2022-07-12T12:33:32;1.37;;;1.20;;
3911;SDS011;1971;51.778;10.330;2022-07-12T12:36:19;1.40;;;1.17;;
3911;SDS011;1971;51.778;10.330;2022-07-12T12:39:02;1.00;;;1.00;;
3911;SDS011;1971;51.778;10.330;2022-07-12T12:41:45;1.53;;;1.20;;
3911;SDS011;1971;51.778;10.330;2022-07-12T12:44:28;0.87;;;0.80;;
3911;SDS011;1971;51.778;10.330;2022-07-12T12:47:10;1.13;;;1.03;;
3911;SDS011;1971;51.778;10.330;2022-07-12T12:49:59;1.30;;;1.20;;
3911;SDS011;1971;51.778;10.330;2022-07-12T12:52:46;1.83;;;1.20;;
3911;SDS011;1971;51.778;10.330;2022-07-12T12:55:24;1.47;;;1.37;;
3911;SDS011;1971;51.778;10.330;2022-07-12T12:58:04;1.10;;;1.10;;
3911;SDS011;1971;51.778;10.330;2022-07-12T13:00:47;1.90;;;1.50;;
3911;SDS011;1971;51.778;10.330;2022-07-12T13:03:26;0.93;;;0.93;;
3911;SDS011;1971;51.778;10.330;2022-07-12T13:06:03;2.37;;;1.30;;
3911;SDS011;1971;51.778;10.330;2022-07-12T13:08:46;1.67;;;1.27;;
3911;SDS011;1971;51.778;10.330;2022-07-12T13:11:23;1.77;;;1.23;;
3911;SDS011;1971;51.778;10.330;2022-07-12T13:14:07;4.00;;;1.10;;
3911;SDS011;1971;51.778;10.330;2022-07-12T13:16:44;1.30;;;1.30;;
3911;SDS011;1971;51.778;10.330;2022-07-12T13:19:26;1.40;;;1.30;;
3911;SDS011;1971;51.778;10.330;2022-07-12T13:22:05;1.37;;;1.37;;
3911;SDS011;1971;51.778;10.330;2022-07-12T13:24:47;1.90;;;1.13;;
3911;SDS011;1971;51.778;10.330;2022-07-12T13:27:24;1.17;;;1.17;;
3911;SDS011;1971;51.778;10.330;2022-07-12T13:30:10;4.30;;;1.37;;
3911;SDS011;1971;51.778;10.330;2022-07-12T13:32:48;1.30;;;1.20;;
3911;SDS011;1971;51.778;10.330;2022-07-12T13:35:30;1.27;;;1.27;;
3911;SDS011;1971;51.778;10.330;2022-07-12T13:38:06;1.20;;;1.10;;
3911;SDS011;1971;51.778;10.330;2022-07-12T13:40:48;1.03;;;0.93;;
3911;SDS011;1971;51.778;10.330;2022-07-12T13:43:24;0.83;;;0.83;;
3911;SDS011;1971;51.778;10.330;2022-07-12T13:46:08;2.30;;;1.10;;
3911;SDS011;1971;51.778;10.330;2022-07-12T13:48:45;1.53;;;0.90;;
3911;SDS011;1971;51.778;10.330;2022-07-12T13:51:21;1.10;;;1.10;;
3911;SDS011;1971;51.778;10.330;2022-07-12T13:54:03;1.70;;;0.97;;
3911;SDS011;1971;51.778;10.330;2022-07-12T13:56:40;0.80;;;0.80;;
3911;SDS011;1971;51.778;10.330;2022-07-12T13:59:22;1.53;;;0.93;;
3911;SDS011;1971;51.778;10.330;2022-07-12T14:02:00;2.10;;;1.03;;
3911;SDS011;1971;51.778;10.330;2022-07-12T14:04:43;1.00;;;0.90;;
3911;SDS011;1971;51.778;10.330;2022-07-12T14:07:19;1.33;;;1.33;;
3911;SDS011;1971;51.778;10.330;2022-07-12T14:10:02;1.23;;;1.13;;
3911;SDS011;1971;51.778;10.330;2022-07-12T14:12:39;2.20;;;1.60;;
3911;SDS011;1971;51.778;10.330;2022-07-12T14:15:21;1.17;;;1.07;;
3911;SDS011;1971;51.778;10.330;2022-07-12T14:18:13;1.57;;;1.10;;
3911;SDS011;1971;51.778;10.330;2022-07-12T14:20:56;3.63;;;1.50;;
3911;SDS011;1971;51.778;10.330;2022-07-12T14:23:32;0.90;;;0.90;;
3911;SDS011;1971;51.778;10.330;2022-07-12T14:26:14;4.10;;;1.13;;
3911;SDS011;1971;51.778;10.330;2022-07-12T14:28:50;1.10;;;1.00;;
3911;SDS011;1971;51.778;10.330;2022-07-12T14:31:27;0.90;;;0.90;;
3911;SDS011;1971;51.778;10.330;2022-07-12T14:34:12;3.00;;;1.27;;
3911;SDS011;1971;51.778;10.330;2022-07-12T14:36:51;1.27;;;1.13;;
3911;SDS011;1971;51.778;10.330;2022-07-12T14:39:33;1.03;;;1.03;;
3911;SDS011;1971;51.778;10.330;2022-07-12T14:42:11;1.10;;;1.10;;
3911;SDS011;1971;51.778;10.330;2022-07-12T14:44:53;3.90;;;1.10;;
3911;SDS011;1971;51.778;10.330;2022-07-12T14:47:29;0.93;;;0.93;;
3911;SDS011;1971;51.778;10.330;2022-07-12T14:50:13;1.07;;;1.07;;
3911;SDS011;1971;51.778;10.330;2022-07-12T14:52:50;2.83;;;1.17;;
3911;SDS011;1971;51.778;10.330;2022-07-12T14:55:32;1.00;;;1.00;;
3911;SDS011;1971;51.778;10.330;2022-07-12T14:58:08;1.20;;;0.90;;
3911;SDS011;1971;51.778;10.330;2022-07-12T15:00:50;1.03;;;0.93;;
3911;SDS011;1971;51.778;10.330;2022-07-12T15:03:26;0.73;;;0.73;;
3911;SDS011;1971;51.778;10.330;2022-07-12T15:06:10;0.93;;;0.93;;
3911;SDS011;1971;51.778;10.330;2022-07-12T15:08:53;0.80;;;0.80;;
3911;SDS011;1971;51.778;10.330;2022-07-12T15:11:32;1.30;;;1.20;;
3911;SDS011;1971;51.778;10.330;2022-07-12T15:14:14;1.40;;;1.33;;
3911;SDS011;1971;51.778;10.330;2022-07-12T15:16:51;3.27;;;1.17;;
3911;SDS011;1971;51.778;10.330;2022-07-12T15:19:33;1.47;;;1.00;;
3911;SDS011;1971;51.778;10.330;2022-07-12T15:22:12;0.90;;;0.90;;
3911;SDS011;1971;51.778;10.330;2022-07-12T15:24:55;1.43;;;1.33;;
3911;SDS011;1971;51.778;10.330;2022-07-12T15:27:31;1.03;;;0.80;;
3911;SDS011;1971;51.778;10.330;2022-07-12T15:30:13;1.00;;;1.00;;
3911;SDS011;1971;51.778;10.330;2022-07-12T15:32:49;1.20;;;1.10;;
3911;SDS011;1971;51.778;10.330;2022-07-12T15:35:33;0.80;;;0.80;;
3911;SDS011;1971;51.778;10.330;2022-07-12T15:38:14;0.90;;;0.90;;
3911;SDS011;1971;51.778;10.330;2022-07-12T15:40:57;0.80;;;0.80;;
3911;SDS011;1971;51.778;10.330;2022-07-12T15:43:34;0.90;;;0.90;;
3911;SDS011;1971;51.778;10.330;2022-07-12T15:46:17;1.07;;;0.87;;
3911;SDS011;1971;51.778;10.330;2022-07-12T15:48:54;0.77;;;0.77;;
3911;SDS011;1971;51.778;10.330;2022-07-12T15:51:30;0.97;;;0.97;;
3911;SDS011;1971;51.778;10.330;2022-07-12T15:54:22;1.10;;;1.10;;
3911;SDS011;1971;51.778;10.330;2022-07-12T15:56:58;0.80;;;0.80;;
3911;SDS011;1971;51.778;10.330;2022-07-12T15:59:40;1.00;;;0.90;;
3911;SDS011;1971;51.778;10.330;2022-07-12T16:02:16;0.80;;;0.80;;
3911;SDS011;1971;51.778;10.330;2022-07-12T16:04:58;1.20;;;1.00;;
3911;SDS011;1971;51.778;10.330;2022-07-12T16:07:35;0.77;;;0.77;;
3911;SDS011;1971;51.778;10.330;2022-07-12T16:10:20;0.80;;;0.70;;
3911;SDS011;1971;51.778;10.330;2022-07-12T16:12:56;0.97;;;0.90;;
3911;SDS011;1971;51.778;10.330;2022-07-12T16:15:45;1.40;;;0.70;;
3911;SDS011;1971;51.778;10.330;2022-07-12T16:18:21;1.00;;;1.00;;
3911;SDS011;1971;51.778;10.330;2022-07-12T16:21:03;1.00;;;1.00;;
3911;SDS011;1971;51.778;10.330;2022-07-12T16:23:39;0.60;;;0.60;;
3911;SDS011;1971;51.778;10.330;2022-07-12T16:26:24;0.83;;;0.70;;
3911;SDS011;1971;51.778;10.330;2022-07-12T16:29:00;1.80;;;1.23;;
3911;SDS011;1971;51.778;10.330;2022-07-12T16:31:36;1.00;;;0.70;;
3911;SDS011;1971;51.778;10.330;2022-07-12T16:34:18;1.30;;;1.20;;
3911;SDS011;1971;51.778;10.330;2022-07-12T16:36:55;0.90;;;0.90;;